createdAt,value
2022-08-20T00:00:21.336Z,21.20
2022-08-20T00:02:51.997Z,21.20
2022-08-20T00:05:37.177Z,21.20
2022-08-20T00:08:04.219Z,21.30
2022-08-20T00:10:32.990Z,21.30
2022-08-20T00:12:59.861Z,21.30
2022-08-20T00:15:30.132Z,21.20
2022-08-20T00:17:57.603Z,21.20
2022-08-20T00:20:31.438Z,21.20
2022-08-20T00:22:59.311Z,21.10
2022-08-20T00:25:28.759Z,21.30
2022-08-20T00:27:57.038Z,21.10
2022-08-20T00:30:24.977Z,21.20
2022-08-20T00:32:55.873Z,21.20
2022-08-20T00:35:25.284Z,21.20
2022-08-20T00:37:55.384Z,21.30
2022-08-20T00:40:40.321Z,21.30
2022-08-20T00:43:24.464Z,21.20
2022-08-20T00:45:55.372Z,21.30
2022-08-20T00:48:26.886Z,21.40
2022-08-20T00:50:59.310Z,21.40
2022-08-20T00:53:26.970Z,21.40
2022-08-20T00:55:53.966Z,21.40
2022-08-20T00:58:20.882Z,21.40
2022-08-20T01:00:49.698Z,21.40
2022-08-20T01:03:20.389Z,21.40
2022-08-20T01:05:50.279Z,21.40
2022-08-20T01:08:19.397Z,21.40
2022-08-20T01:10:49.651Z,21.40
2022-08-20T01:13:20.669Z,21.40
2022-08-20T01:15:49.612Z,21.40
2022-08-20T01:18:25.287Z,21.40
2022-08-20T01:21:00.957Z,21.40
2022-08-20T01:24:01.125Z,21.40
2022-08-20T01:26:34.283Z,21.40
2022-08-20T01:29:10.898Z,21.40
2022-08-20T01:31:40.081Z,21.30
2022-08-20T01:34:10.231Z,21.30
2022-08-20T01:36:46.312Z,21.30
2022-08-20T01:39:18.968Z,21.30
2022-08-20T01:42:00.791Z,21.20
2022-08-20T01:44:28.031Z,21.30
2022-08-20T01:46:59.560Z,21.30
2022-08-20T01:49:32.302Z,19.60
2022-08-20T01:52:05.548Z,21.20
2022-08-20T01:54:33.793Z,21.20
2022-08-20T01:57:10.475Z,21.20
2022-08-20T01:59:37.661Z,21.20
2022-08-20T02:02:05.398Z,21.20
2022-08-20T02:04:32.074Z,21.10
2022-08-20T02:07:02.152Z,21.20
2022-08-20T02:09:32.487Z,21.10
2022-08-20T02:12:00.148Z,21.10
2022-08-20T02:14:27.943Z,21.10
2022-08-20T02:16:56.265Z,21.20
2022-08-20T02:19:31.048Z,21.20
2022-08-20T02:22:00.412Z,21.30
2022-08-20T02:24:27.075Z,21.30
2022-08-20T02:26:54.921Z,21.20
2022-08-20T02:29:21.580Z,21.20
2022-08-20T02:32:24.161Z,21.10
2022-08-20T02:34:35.988Z,21.10
2022-08-20T02:37:04.662Z,21.10
2022-08-20T02:39:31.394Z,21.10
2022-08-20T02:41:58.078Z,21.20
2022-08-20T02:44:24.961Z,21.20
2022-08-20T02:46:51.958Z,21.30
2022-08-20T02:49:19.919Z,21.30
2022-08-20T02:51:46.789Z,21.30
2022-08-20T02:54:14.308Z,21.20
2022-08-20T02:56:41.123Z,21.10
2022-08-20T02:59:08.053Z,21.00
2022-08-20T03:01:37.755Z,21.00
2022-08-20T03:04:04.584Z,21.00
2022-08-20T03:06:31.647Z,21.00
2022-08-20T03:08:58.324Z,21.00
2022-08-20T03:11:24.997Z,21.00
2022-08-20T03:13:52.503Z,21.00
2022-08-20T03:16:19.405Z,21.00
2022-08-20T03:18:47.270Z,20.90
2022-08-20T03:21:15.297Z,20.90
2022-08-20T03:23:42.568Z,20.90
2022-08-20T03:26:11.915Z,20.90
2022-08-20T03:28:39.861Z,20.90
2022-08-20T03:31:06.741Z,20.90
2022-08-20T03:33:33.415Z,20.80
2022-08-20T03:36:00.114Z,20.70
2022-08-20T03:38:32.475Z,20.70
2022-08-20T03:41:00.874Z,20.60
2022-08-20T03:43:27.746Z,20.70
2022-08-20T03:45:54.523Z,20.60
2022-08-20T03:48:21.590Z,21.20
2022-08-20T03:50:50.733Z,20.80
2022-08-20T03:53:17.959Z,20.80
2022-08-20T03:55:53.811Z,20.80
2022-08-20T03:58:22.160Z,20.80
2022-08-20T04:01:03.503Z,20.80
2022-08-20T04:03:30.261Z,20.70
2022-08-20T04:05:56.900Z,20.80
2022-08-20T04:08:26.921Z,20.80
2022-08-20T04:10:54.907Z,20.80
2022-08-20T04:13:22.750Z,20.80
2022-08-20T04:15:53.635Z,20.90
2022-08-20T04:18:23.986Z,20.90
2022-08-20T04:20:52.900Z,20.90
2022-08-20T04:23:21.211Z,20.80
2022-08-20T04:25:48.433Z,20.70
2022-08-20T04:28:28.614Z,20.80
2022-08-20T04:30:57.830Z,20.80
2022-08-20T04:33:33.708Z,20.70
2022-08-20T04:36:03.105Z,20.80
2022-08-20T04:38:47.807Z,20.80
2022-08-20T04:41:22.786Z,20.90
2022-08-20T04:43:53.057Z,21.00
2022-08-20T04:46:20.982Z,21.00
2022-08-20T04:48:48.969Z,21.10
2022-08-20T04:51:18.287Z,21.00
2022-08-20T04:53:53.252Z,21.10
2022-08-20T04:56:23.885Z,21.00
2022-08-20T04:58:52.363Z,21.00
2022-08-20T05:01:19.318Z,20.90
2022-08-20T05:03:47.816Z,20.80
2022-08-20T05:06:16.108Z,20.80
2022-08-20T05:08:43.205Z,20.80
2022-08-20T05:11:36.011Z,20.80
2022-08-20T05:13:57.044Z,20.80
2022-08-20T05:16:24.659Z,20.80
2022-08-20T05:18:52.807Z,22.30
2022-08-20T05:21:21.084Z,20.60
2022-08-20T05:23:49.145Z,20.60
2022-08-20T05:26:16.224Z,20.60
2022-08-20T05:28:54.115Z,20.60
2022-08-20T05:31:31.948Z,20.60
2022-08-20T05:34:01.863Z,20.60
2022-08-20T05:36:29.042Z,20.60
2022-08-20T05:38:55.697Z,20.70
2022-08-20T05:41:28.599Z,20.70
2022-08-20T05:43:58.117Z,20.80
2022-08-20T05:46:24.890Z,20.80
2022-08-20T05:48:51.543Z,20.70
2022-08-20T05:51:18.427Z,20.70
2022-08-20T05:53:45.073Z,20.80
2022-08-20T05:56:11.758Z,20.90
2022-08-20T05:58:38.473Z,20.90
2022-08-20T06:01:05.644Z,21.00
2022-08-20T06:03:51.141Z,20.80
2022-08-20T06:06:44.370Z,20.90
2022-08-20T06:09:04.691Z,20.90
2022-08-20T06:11:36.404Z,20.80
2022-08-20T06:14:04.704Z,20.80
2022-08-20T06:16:31.946Z,20.80
2022-08-20T06:18:58.750Z,20.80
2022-08-20T06:21:25.995Z,20.80
2022-08-20T06:23:58.361Z,20.90
2022-08-20T06:26:30.469Z,21.90
2022-08-20T06:28:58.492Z,20.80
2022-08-20T06:31:25.210Z,20.90
2022-08-20T06:33:51.879Z,20.90
2022-08-20T06:36:19.267Z,20.90
2022-08-20T06:38:47.045Z,21.00
2022-08-20T06:41:14.123Z,21.00
2022-08-20T06:43:40.850Z,20.90
2022-08-20T06:46:07.750Z,21.00
2022-08-20T06:48:34.625Z,21.10
2022-08-20T06:51:01.580Z,21.20
2022-08-20T06:53:29.087Z,21.20
2022-08-20T06:55:58.761Z,21.30
2022-08-20T06:58:37.075Z,21.30
2022-08-20T07:01:09.165Z,21.40
2022-08-20T07:03:38.456Z,21.40
2022-08-20T07:06:06.159Z,21.40
2022-08-20T07:08:33.383Z,21.20
2022-08-20T07:11:00.206Z,21.20
2022-08-20T07:13:28.317Z,20.70
2022-08-20T07:15:55.854Z,21.20
2022-08-20T07:18:27.788Z,21.20
2022-08-20T07:20:57.487Z,21.20
2022-08-20T07:23:25.803Z,21.40
2022-08-20T07:25:53.232Z,21.60
2022-08-20T07:28:22.667Z,22.50
2022-08-20T07:31:13.611Z,21.70
2022-08-20T07:33:44.487Z,21.80
2022-08-20T07:36:12.979Z,21.80
2022-08-20T07:38:39.716Z,21.80
2022-08-20T07:41:09.921Z,22.00
2022-08-20T07:43:36.802Z,21.90
2022-08-20T07:46:08.802Z,21.90
2022-08-20T07:48:39.489Z,21.90
2022-08-20T07:51:07.052Z,21.70
2022-08-20T07:53:36.315Z,21.60
2022-08-20T07:56:06.048Z,21.50
2022-08-20T07:58:33.332Z,21.50
2022-08-20T08:01:00.577Z,21.60
2022-08-20T08:03:40.726Z,21.60
2022-08-20T08:06:17.001Z,21.70
2022-08-20T08:09:02.520Z,21.90
2022-08-20T08:11:29.786Z,22.10
2022-08-20T08:13:56.665Z,22.00
2022-08-20T08:16:23.414Z,22.20
2022-08-20T08:18:56.570Z,22.20
2022-08-20T08:21:23.694Z,22.30
2022-08-20T08:23:50.374Z,22.30
2022-08-20T08:26:19.114Z,22.40
2022-08-20T08:28:46.559Z,22.40
2022-08-20T08:31:13.800Z,22.50
2022-08-20T08:33:41.745Z,22.60
2022-08-20T08:36:14.226Z,22.60
2022-08-20T08:38:44.205Z,22.60
2022-08-20T08:41:34.029Z,22.60
2022-08-20T08:44:39.523Z,22.60
2022-08-20T08:47:18.242Z,22.60
2022-08-20T08:49:47.234Z,22.60
2022-08-20T08:52:24.580Z,22.70
2022-08-20T08:54:56.926Z,22.70
2022-08-20T08:57:24.553Z,22.70
2022-08-20T09:00:03.975Z,22.80
2022-08-20T09:02:32.906Z,22.90
2022-08-20T09:05:02.911Z,22.80
2022-08-20T09:07:33.399Z,22.80
2022-08-20T09:10:01.499Z,23.00
2022-08-20T09:12:28.299Z,23.00
2022-08-20T09:14:55.273Z,23.10
2022-08-20T09:17:23.342Z,23.10
2022-08-20T09:19:52.116Z,23.10
2022-08-20T09:22:22.124Z,23.10
2022-08-20T09:24:50.052Z,23.00
2022-08-20T09:27:17.270Z,23.10
2022-08-20T09:29:44.264Z,23.10
2022-08-20T09:32:21.406Z,22.80
2022-08-20T09:34:58.936Z,22.60
2022-08-20T09:37:29.856Z,22.70
2022-08-20T09:39:58.661Z,22.80
2022-08-20T09:42:28.579Z,22.90
2022-08-20T09:44:55.895Z,23.10
2022-08-20T09:47:22.761Z,23.30
2022-08-20T09:49:49.599Z,23.30
2022-08-20T09:52:22.547Z,23.20
2022-08-20T09:54:51.344Z,23.20
2022-08-20T09:57:18.706Z,23.10
2022-08-20T09:59:51.438Z,23.40
2022-08-20T10:02:18.127Z,23.50
2022-08-20T10:04:44.875Z,23.30
2022-08-20T10:07:12.736Z,23.20
2022-08-20T10:09:42.993Z,23.40
2022-08-20T10:12:09.770Z,23.50
2022-08-20T10:14:36.443Z,23.70
2022-08-20T10:17:04.012Z,23.90
2022-08-20T10:19:31.862Z,23.90
2022-08-20T10:21:59.033Z,23.60
2022-08-20T10:24:26.833Z,23.40
2022-08-20T10:26:58.617Z,23.40
2022-08-20T10:29:26.886Z,23.50
2022-08-20T10:31:55.003Z,23.40
2022-08-20T10:34:21.722Z,23.30
2022-08-20T10:36:48.457Z,23.30
2022-08-20T10:39:15.563Z,23.20
2022-08-20T10:41:42.280Z,23.30
2022-08-20T10:44:09.396Z,23.60
2022-08-20T10:46:36.426Z,23.80
2022-08-20T10:49:03.250Z,23.90
2022-08-20T10:51:32.232Z,23.70
2022-08-20T10:53:59.366Z,23.60
2022-08-20T10:56:26.274Z,23.50
2022-08-20T10:58:53.053Z,23.50
2022-08-20T11:01:32.796Z,23.50
2022-08-20T11:04:00.718Z,23.40
2022-08-20T11:06:27.382Z,23.30
2022-08-20T11:08:54.017Z,23.20
2022-08-20T11:11:23.741Z,23.50
2022-08-20T11:13:50.374Z,23.60
2022-08-20T11:16:17.034Z,23.60
2022-08-20T11:18:47.326Z,23.30
2022-08-20T11:21:14.477Z,23.30
2022-08-20T11:23:41.134Z,23.40
2022-08-20T11:26:08.430Z,23.40
2022-08-20T11:28:35.071Z,23.40
2022-08-20T11:31:02.134Z,23.40
2022-08-20T11:33:29.282Z,23.50
2022-08-20T11:35:56.144Z,23.60
2022-08-20T11:38:22.816Z,23.70
2022-08-20T11:40:50.587Z,23.70
2022-08-20T11:43:18.172Z,23.60
2022-08-20T11:45:48.105Z,23.50
2022-08-20T11:48:15.169Z,23.40
2022-08-20T11:50:41.929Z,23.40
2022-08-20T11:53:08.677Z,23.30
2022-08-20T11:55:36.088Z,23.50
2022-08-20T11:58:04.099Z,23.70
2022-08-20T12:00:33.903Z,23.80
2022-08-20T12:03:02.549Z,23.70
2022-08-20T12:05:31.972Z,22.60
2022-08-20T12:08:01.428Z,23.70
2022-08-20T12:10:29.019Z,23.90
2022-08-20T12:12:56.659Z,24.00
2022-08-20T12:15:24.044Z,23.80
2022-08-20T12:17:50.769Z,25.40
2022-08-20T12:20:17.441Z,24.00
2022-08-20T12:22:44.665Z,24.10
2022-08-20T12:25:12.023Z,24.10
2022-08-20T12:27:39.287Z,24.00
2022-08-20T12:30:12.390Z,23.90
2022-08-20T12:32:39.644Z,24.10
2022-08-20T12:35:08.632Z,24.30
2022-08-20T12:37:36.317Z,24.40
2022-08-20T12:40:07.406Z,24.20
2022-08-20T12:42:34.240Z,24.00
2022-08-20T12:45:00.927Z,23.90
2022-08-20T12:47:40.219Z,23.70
2022-08-20T12:50:18.540Z,23.70
2022-08-20T12:52:45.800Z,23.90
2022-08-20T12:55:14.995Z,23.90
2022-08-20T12:58:09.693Z,23.80
2022-08-20T13:00:43.318Z,23.90
2022-08-20T13:03:11.228Z,23.80
2022-08-20T13:05:38.242Z,23.80
2022-08-20T13:08:10.038Z,23.60
2022-08-20T13:10:44.009Z,23.70
2022-08-20T13:13:11.904Z,23.80
2022-08-20T13:15:38.850Z,24.00
2022-08-20T13:18:08.518Z,24.10
2022-08-20T13:20:35.333Z,24.10
2022-08-20T13:23:05.942Z,24.20
2022-08-20T13:25:33.448Z,24.20
2022-08-20T13:28:03.686Z,24.20
2022-08-20T13:30:31.876Z,24.50
2022-08-20T13:32:58.687Z,24.40
2022-08-20T13:35:25.609Z,24.30
2022-08-20T13:37:52.272Z,24.30
2022-08-20T13:40:19.275Z,24.10
2022-08-20T13:42:46.006Z,23.80
2022-08-20T13:45:13.196Z,23.80
2022-08-20T13:47:41.605Z,23.80
2022-08-20T13:50:10.293Z,23.70
2022-08-20T13:52:38.350Z,23.90
2022-08-20T13:55:07.307Z,24.10
2022-08-20T13:57:34.427Z,24.40
2022-08-20T14:00:01.560Z,24.50
2022-08-20T14:02:28.521Z,24.50
2022-08-20T14:04:55.277Z,24.60
2022-08-20T14:07:28.876Z,24.60
2022-08-20T14:10:01.668Z,24.50
2022-08-20T14:12:30.732Z,24.30
2022-08-20T14:14:58.064Z,24.40
2022-08-20T14:17:31.100Z,24.30
2022-08-20T14:20:01.701Z,24.30
2022-08-20T14:22:29.535Z,24.60
2022-08-20T14:24:56.617Z,24.90
2022-08-20T14:27:29.011Z,25.00
2022-08-20T14:29:55.862Z,24.90
2022-08-20T14:32:22.534Z,24.70
2022-08-20T14:34:49.442Z,24.80
2022-08-20T14:37:22.160Z,24.90
2022-08-20T14:39:52.674Z,25.10
2022-08-20T14:42:22.859Z,25.30
2022-08-20T14:44:53.080Z,25.40
2022-08-20T14:47:23.051Z,25.50
2022-08-20T14:49:51.322Z,25.50
2022-08-20T14:52:19.781Z,25.60
2022-08-20T14:54:47.603Z,25.70
2022-08-20T14:57:15.622Z,25.10
2022-08-20T14:59:43.338Z,24.80
2022-08-20T15:02:12.457Z,24.60
2022-08-20T15:04:39.861Z,24.50
2022-08-20T15:07:14.324Z,24.60
2022-08-20T15:09:43.031Z,24.90
2022-08-20T15:12:09.710Z,25.10
2022-08-20T15:14:39.202Z,25.20
2022-08-20T15:17:06.258Z,25.30
2022-08-20T15:19:33.000Z,25.40
2022-08-20T15:21:59.888Z,25.50
2022-08-20T15:24:26.553Z,25.10
2022-08-20T15:26:53.245Z,24.90
2022-08-20T15:29:23.320Z,24.90
2022-08-20T15:31:51.031Z,24.80
2022-08-20T15:34:18.318Z,24.50
2022-08-20T15:36:45.676Z,24.70
2022-08-20T15:39:12.385Z,24.60
2022-08-20T15:41:39.062Z,24.60
2022-08-20T15:44:06.103Z,24.80
2022-08-20T15:46:36.334Z,24.80
2022-08-20T15:49:11.366Z,24.60
2022-08-20T15:51:49.537Z,24.60
2022-08-20T15:54:24.817Z,24.40
2022-08-20T15:57:03.265Z,24.40
2022-08-20T15:59:29.856Z,24.50
2022-08-20T16:02:26.085Z,24.60
2022-08-20T16:05:07.745Z,25.00
2022-08-20T16:07:49.597Z,26.30
2022-08-20T16:10:22.557Z,28.50
2022-08-20T16:12:54.320Z,30.20
2022-08-20T16:15:26.010Z,30.50
2022-08-20T16:18:08.533Z,30.90
2022-08-20T16:20:47.745Z,29.80
2022-08-20T16:23:23.390Z,27.70
2022-08-20T16:26:04.853Z,26.50
2022-08-20T16:28:53.003Z,25.30
2022-08-20T16:31:25.763Z,24.70
2022-08-20T16:34:01.217Z,24.30
2022-08-20T16:36:41.846Z,24.20
2022-08-20T16:39:16.681Z,24.10
2022-08-20T16:41:45.990Z,24.00
2022-08-20T16:44:29.661Z,23.80
2022-08-20T16:47:15.970Z,23.40
2022-08-20T16:49:57.366Z,23.40
2022-08-20T16:52:24.360Z,23.40
2022-08-20T16:54:50.977Z,23.50
2022-08-20T16:57:19.771Z,23.40
2022-08-20T16:59:55.695Z,23.30
2022-08-20T17:02:22.989Z,23.10
2022-08-20T17:04:59.005Z,23.10
2022-08-20T17:07:33.706Z,23.10
2022-08-20T17:10:20.202Z,23.20
2022-08-20T17:12:56.904Z,23.30
2022-08-20T17:15:27.996Z,23.30
2022-08-20T17:17:55.875Z,23.30
2022-08-20T17:20:29.032Z,23.30
2022-08-20T17:23:11.362Z,23.30
2022-08-20T17:25:38.475Z,23.30
2022-08-20T17:28:23.638Z,23.10
2022-08-20T17:30:50.720Z,23.10
2022-08-20T17:33:35.887Z,23.00
2022-08-20T17:36:13.537Z,22.90
2022-08-20T17:38:55.523Z,22.70
2022-08-20T17:41:30.070Z,22.50
2022-08-20T17:44:00.608Z,22.40
2022-08-20T17:46:32.533Z,22.30
2022-08-20T17:49:03.226Z,22.20
2022-08-20T17:51:49.249Z,22.20
2022-08-20T17:54:25.879Z,22.30
2022-08-20T17:56:57.926Z,22.20
2022-08-20T17:59:59.702Z,22.20
2022-08-20T18:02:18.771Z,22.20
2022-08-20T18:04:47.298Z,22.10
2022-08-20T18:07:51.834Z,22.00
2022-08-20T18:10:23.430Z,22.00
2022-08-20T18:12:52.902Z,22.00
2022-08-20T18:15:39.938Z,22.00
2022-08-20T18:18:25.375Z,21.90
2022-08-20T18:21:14.486Z,22.00
2022-08-20T18:23:47.726Z,22.00
2022-08-20T18:26:18.058Z,22.00
2022-08-20T18:28:59.211Z,22.00
2022-08-20T18:31:34.091Z,21.90
2022-08-20T18:34:35.489Z,21.90
2022-08-20T18:37:04.330Z,21.80
2022-08-20T18:39:39.946Z,21.80
2022-08-20T18:42:27.237Z,21.70
2022-08-20T18:44:55.727Z,21.80
2022-08-20T18:47:33.147Z,21.80
2022-08-20T18:50:16.197Z,21.90
2022-08-20T18:52:49.694Z,21.90
2022-08-20T18:55:32.830Z,21.90
2022-08-20T18:58:02.565Z,21.90
2022-08-20T19:00:49.689Z,21.90
2022-08-20T19:03:38.270Z,21.70
2022-08-20T19:06:10.783Z,21.50
2022-08-20T19:09:04.563Z,21.50
2022-08-20T19:11:55.210Z,21.50
2022-08-20T19:14:40.597Z,21.50
2022-08-20T19:17:37.814Z,21.50
2022-08-20T19:20:10.434Z,21.50
2022-08-20T19:22:39.703Z,21.50
2022-08-20T19:25:07.750Z,21.40
2022-08-20T19:27:34.562Z,21.50
2022-08-20T19:30:01.622Z,21.40
2022-08-20T19:32:31.198Z,21.50
2022-08-20T19:35:05.018Z,21.50
2022-08-20T19:37:50.478Z,21.60
2022-08-20T19:40:28.442Z,21.60
2022-08-20T19:42:57.067Z,21.50
2022-08-20T19:45:27.125Z,21.50
2022-08-20T19:48:08.014Z,21.40
2022-08-20T19:50:57.207Z,21.30
2022-08-20T19:53:31.145Z,21.30
2022-08-20T19:56:09.569Z,21.20
2022-08-20T19:58:36.577Z,21.10
2022-08-20T20:01:08.613Z,21.00
2022-08-20T20:03:37.839Z,21.00
2022-08-20T20:06:17.341Z,22.50
2022-08-20T20:08:52.733Z,21.00
2022-08-20T20:11:24.713Z,20.80
2022-08-20T20:13:51.390Z,20.80
2022-08-20T20:16:20.885Z,20.80
2022-08-20T20:19:03.814Z,20.70
2022-08-20T20:21:42.239Z,20.70
2022-08-20T20:24:10.390Z,20.70
2022-08-20T20:26:41.081Z,20.60
2022-08-20T20:29:20.818Z,20.60
2022-08-20T20:31:56.558Z,20.70
2022-08-20T20:34:36.090Z,20.60
2022-08-20T20:37:10.494Z,20.60
2022-08-20T20:39:41.065Z,20.50
2022-08-20T20:42:10.593Z,20.50
2022-08-20T20:44:40.266Z,20.50
2022-08-20T20:47:17.137Z,20.50
2022-08-20T20:49:59.559Z,20.10
2022-08-20T20:52:30.870Z,20.50
2022-08-20T20:55:28.458Z,20.40
2022-08-20T20:57:55.811Z,20.40
2022-08-20T21:00:26.133Z,20.30
2022-08-20T21:02:52.923Z,20.30
2022-08-20T21:05:22.591Z,20.30
2022-08-20T21:07:55.893Z,20.30
2022-08-20T21:10:26.081Z,20.20
2022-08-20T21:12:53.651Z,20.20
2022-08-20T21:15:22.897Z,20.20
2022-08-20T21:17:50.019Z,20.20
2022-08-20T21:20:17.047Z,20.10
2022-08-20T21:22:43.720Z,20.10
2022-08-20T21:25:10.425Z,20.00
2022-08-20T21:27:37.305Z,20.00
2022-08-20T21:30:05.270Z,19.90
2022-08-20T21:32:31.909Z,20.40
2022-08-20T21:34:58.559Z,19.90
2022-08-20T21:37:25.236Z,19.80
2022-08-20T21:39:52.368Z,19.80
2022-08-20T21:42:29.424Z,19.80
2022-08-20T21:44:57.980Z,19.70
2022-08-20T21:47:25.263Z,19.70
2022-08-20T21:49:52.291Z,19.70
2022-08-20T21:52:19.053Z,19.70
2022-08-20T21:54:45.928Z,19.60
2022-08-20T21:57:21.701Z,19.60
2022-08-20T21:59:49.519Z,19.60
2022-08-20T22:02:17.838Z,19.50
2022-08-20T22:04:44.618Z,19.60
2022-08-20T22:07:11.646Z,19.50
2022-08-20T22:09:38.901Z,19.50
2022-08-20T22:12:11.258Z,19.50
2022-08-20T22:14:37.966Z,19.40
2022-08-20T22:17:04.745Z,19.40
2022-08-20T22:19:31.394Z,19.40
2022-08-20T22:21:58.149Z,19.40
2022-08-20T22:24:27.146Z,19.30
2022-08-20T22:26:54.054Z,19.30
2022-08-20T22:29:21.602Z,19.30
2022-08-20T22:31:48.785Z,19.30
2022-08-20T22:34:18.512Z,19.30
2022-08-20T22:36:45.270Z,19.30
2022-08-20T22:39:12.063Z,19.30
2022-08-20T22:41:39.337Z,19.20
2022-08-20T22:44:06.029Z,19.20
2022-08-20T22:46:36.062Z,19.20
2022-08-20T22:49:04.314Z,17.60
2022-08-20T22:51:34.672Z,19.10
2022-08-20T22:54:04.209Z,19.10
2022-08-20T22:56:31.113Z,19.00
2022-08-20T22:58:59.374Z,19.00
2022-08-20T23:01:27.346Z,19.00
2022-08-20T23:03:55.205Z,18.90
2022-08-20T23:06:22.361Z,19.60
2022-08-20T23:08:49.132Z,18.90
2022-08-20T23:11:15.915Z,18.80
2022-08-20T23:13:42.638Z,18.90
2022-08-20T23:16:09.419Z,19.00
2022-08-20T23:18:36.304Z,19.00
2022-08-20T23:21:03.264Z,19.00
2022-08-20T23:23:30.811Z,19.10
2022-08-20T23:25:57.691Z,19.10
2022-08-20T23:28:25.666Z,19.00
2022-08-20T23:30:52.517Z,19.00
2022-08-20T23:33:19.371Z,18.90
2022-08-20T23:35:46.512Z,18.80
2022-08-20T23:38:13.783Z,18.80
2022-08-20T23:40:41.209Z,18.70
2022-08-20T23:43:08.516Z,18.70
2022-08-20T23:45:35.878Z,18.60
2022-08-20T23:48:07.817Z,18.60
2022-08-20T23:50:35.258Z,18.60
2022-08-20T23:53:02.655Z,18.60
2022-08-20T23:55:29.398Z,18.50
2022-08-20T23:57:56.210Z,18.50
